sensor_id;sensor_type;location;lat;lon;timestamp;P1;durP1;ratioP1;P2;durP2;ratioP2
11267;SDS011;49397;47.474;9.416;2023-06-04T00:02:12;8.00;;;6.03;;
11267;SDS011;49397;47.474;9.416;2023-06-04T00:04:37;6.80;;;5.80;;
11267;SDS011;49397;47.474;9.416;2023-06-04T00:07:03;7.93;;;6.37;;
11267;SDS011;49397;47.474;9.416;2023-06-04T00:09:29;7.80;;;7.00;;
11267;SDS011;49397;47.474;9.416;2023-06-04T00:11:54;8.47;;;7.13;;
11267;SDS011;49397;47.474;9.416;2023-06-04T00:14:20;11.20;;;6.57;;
11267;SDS011;49397;47.474;9.416;2023-06-04T00:16:45;9.43;;;6.77;;
11267;SDS011;49397;47.474;9.416;2023-06-04T00:19:11;8.63;;;6.57;;
11267;SDS011;49397;47.474;9.416;2023-06-04T00:21:36;9.03;;;7.37;;
11267;SDS011;49397;47.474;9.416;2023-06-04T00:24:02;10.97;;;6.93;;
11267;SDS011;49397;47.474;9.416;2023-06-04T00:26:27;11.57;;;7.43;;
11267;SDS011;49397;47.474;9.416;2023-06-04T00:28:56;10.17;;;8.03;;
11267;SDS011;49397;47.474;9.416;2023-06-04T00:31:21;8.77;;;7.33;;
11267;SDS011;49397;47.474;9.416;2023-06-04T00:33:50;9.20;;;6.77;;
11267;SDS011;49397;47.474;9.416;2023-06-04T00:36:15;11.77;;;8.83;;
11267;SDS011;49397;47.474;9.416;2023-06-04T00:38:41;8.33;;;7.10;;
11267;SDS011;49397;47.474;9.416;2023-06-04T00:41:06;9.77;;;7.17;;
11267;SDS011;49397;47.474;9.416;2023-06-04T00:43:32;13.43;;;8.40;;
11267;SDS011;49397;47.474;9.416;2023-06-04T00:45:58;11.10;;;7.63;;
11267;SDS011;49397;47.474;9.416;2023-06-04T00:48:25;9.63;;;7.80;;
11267;SDS011;49397;47.474;9.416;2023-06-04T00:50:52;10.80;;;7.83;;
11267;SDS011;49397;47.474;9.416;2023-06-04T00:53:19;9.20;;;7.57;;
11267;SDS011;49397;47.474;9.416;2023-06-04T00:55:46;9.80;;;7.80;;
11267;SDS011;49397;47.474;9.416;2023-06-04T00:58:11;10.87;;;8.00;;
11267;SDS011;49397;47.474;9.416;2023-06-04T01:00:38;9.50;;;7.87;;
11267;SDS011;49397;47.474;9.416;2023-06-04T01:03:05;8.03;;;7.23;;
11267;SDS011;49397;47.474;9.416;2023-06-04T01:05:56;10.47;;;7.67;;
11267;SDS011;49397;47.474;9.416;2023-06-04T01:08:29;10.23;;;7.40;;
11267;SDS011;49397;47.474;9.416;2023-06-04T01:10:56;9.83;;;7.83;;
11267;SDS011;49397;47.474;9.416;2023-06-04T01:13:24;9.23;;;7.33;;
11267;SDS011;49397;47.474;9.416;2023-06-04T01:15:49;10.23;;;7.37;;
11267;SDS011;49397;47.474;9.416;2023-06-04T01:18:16;10.47;;;6.83;;
11267;SDS011;49397;47.474;9.416;2023-06-04T01:21:02;10.53;;;7.50;;
11267;SDS011;49397;47.474;9.416;2023-06-04T01:23:46;8.20;;;7.37;;
11267;SDS011;49397;47.474;9.416;2023-06-04T01:26:14;8.50;;;6.40;;
11267;SDS011;49397;47.474;9.416;2023-06-04T01:28:40;8.90;;;7.17;;
11267;SDS011;49397;47.474;9.416;2023-06-04T01:31:06;11.00;;;7.10;;
11267;SDS011;49397;47.474;9.416;2023-06-04T01:33:33;10.33;;;7.13;;
11267;SDS011;49397;47.474;9.416;2023-06-04T01:35:59;9.13;;;7.33;;
11267;SDS011;49397;47.474;9.416;2023-06-04T01:38:26;11.27;;;7.93;;
11267;SDS011;49397;47.474;9.416;2023-06-04T01:40:52;7.93;;;7.13;;
11267;SDS011;49397;47.474;9.416;2023-06-04T01:43:21;12.90;;;8.20;;
11267;SDS011;49397;47.474;9.416;2023-06-04T01:45:47;9.20;;;7.13;;
11267;SDS011;49397;47.474;9.416;2023-06-04T01:48:13;9.83;;;7.40;;
11267;SDS011;49397;47.474;9.416;2023-06-04T01:50:39;10.93;;;7.27;;
11267;SDS011;49397;47.474;9.416;2023-06-04T01:53:05;11.10;;;8.40;;
11267;SDS011;49397;47.474;9.416;2023-06-04T01:55:31;10.50;;;8.43;;
11267;SDS011;49397;47.474;9.416;2023-06-04T01:57:58;9.00;;;7.47;;
11267;SDS011;49397;47.474;9.416;2023-06-04T02:00:25;10.03;;;8.13;;
11267;SDS011;49397;47.474;9.416;2023-06-04T02:02:51;10.00;;;8.57;;
11267;SDS011;49397;47.474;9.416;2023-06-04T02:05:18;8.93;;;7.67;;
11267;SDS011;49397;47.474;9.416;2023-06-04T02:07:44;9.37;;;8.03;;
11267;SDS011;49397;47.474;9.416;2023-06-04T02:10:11;10.63;;;8.57;;
11267;SDS011;49397;47.474;9.416;2023-06-04T02:12:38;9.13;;;7.80;;
11267;SDS011;49397;47.474;9.416;2023-06-04T02:15:05;11.57;;;8.13;;
11267;SDS011;49397;47.474;9.416;2023-06-04T02:17:32;12.10;;;8.30;;
11267;SDS011;49397;47.474;9.416;2023-06-04T02:19:58;11.97;;;8.60;;
11267;SDS011;49397;47.474;9.416;2023-06-04T02:22:24;9.97;;;8.10;;
11267;SDS011;49397;47.474;9.416;2023-06-04T02:24:51;13.33;;;8.67;;
11267;SDS011;49397;47.474;9.416;2023-06-04T02:27:16;8.87;;;7.70;;
11267;SDS011;49397;47.474;9.416;2023-06-04T02:29:42;11.57;;;8.77;;
11267;SDS011;49397;47.474;9.416;2023-06-04T02:32:08;11.23;;;8.60;;
11267;SDS011;49397;47.474;9.416;2023-06-04T02:34:34;10.30;;;8.47;;
11267;SDS011;49397;47.474;9.416;2023-06-04T02:37:00;11.60;;;8.30;;
11267;SDS011;49397;47.474;9.416;2023-06-04T02:39:26;11.23;;;8.50;;
11267;SDS011;49397;47.474;9.416;2023-06-04T02:41:52;11.17;;;8.20;;
11267;SDS011;49397;47.474;9.416;2023-06-04T02:44:18;10.00;;;8.10;;
11267;SDS011;49397;47.474;9.416;2023-06-04T02:46:43;12.50;;;8.17;;
11267;SDS011;49397;47.474;9.416;2023-06-04T02:49:09;12.87;;;8.30;;
11267;SDS011;49397;47.474;9.416;2023-06-04T02:51:39;9.47;;;8.27;;
11267;SDS011;49397;47.474;9.416;2023-06-04T02:54:10;8.63;;;7.60;;
11267;SDS011;49397;47.474;9.416;2023-06-04T02:56:36;9.37;;;7.33;;
11267;SDS011;49397;47.474;9.416;2023-06-04T02:59:02;11.77;;;8.53;;
11267;SDS011;49397;47.474;9.416;2023-06-04T03:01:28;12.20;;;7.73;;
11267;SDS011;49397;47.474;9.416;2023-06-04T03:03:54;10.33;;;8.20;;
11267;SDS011;49397;47.474;9.416;2023-06-04T03:06:20;10.13;;;7.33;;
11267;SDS011;49397;47.474;9.416;2023-06-04T03:08:50;9.33;;;7.83;;
11267;SDS011;49397;47.474;9.416;2023-06-04T03:11:17;11.60;;;7.93;;
11267;SDS011;49397;47.474;9.416;2023-06-04T03:13:44;9.97;;;8.37;;
11267;SDS011;49397;47.474;9.416;2023-06-04T03:16:10;9.80;;;8.23;;
11267;SDS011;49397;47.474;9.416;2023-06-04T03:18:36;10.57;;;8.23;;
11267;SDS011;49397;47.474;9.416;2023-06-04T03:21:03;10.77;;;8.60;;
11267;SDS011;49397;47.474;9.416;2023-06-04T03:23:32;12.90;;;8.53;;
11267;SDS011;49397;47.474;9.416;2023-06-04T03:26:00;11.40;;;9.10;;
11267;SDS011;49397;47.474;9.416;2023-06-04T03:28:26;9.47;;;7.67;;
11267;SDS011;49397;47.474;9.416;2023-06-04T03:30:51;12.43;;;8.57;;
11267;SDS011;49397;47.474;9.416;2023-06-04T03:33:17;10.87;;;7.83;;
11267;SDS011;49397;47.474;9.416;2023-06-04T03:35:42;10.23;;;8.07;;
11267;SDS011;49397;47.474;9.416;2023-06-04T03:38:08;9.80;;;7.57;;
11267;SDS011;49397;47.474;9.416;2023-06-04T03:40:33;11.43;;;8.17;;
11267;SDS011;49397;47.474;9.416;2023-06-04T03:42:59;13.73;;;8.77;;
11267;SDS011;49397;47.474;9.416;2023-06-04T03:45:25;11.07;;;8.17;;
11267;SDS011;49397;47.474;9.416;2023-06-04T03:47:51;10.50;;;8.73;;
11267;SDS011;49397;47.474;9.416;2023-06-04T03:50:20;9.67;;;8.33;;
11267;SDS011;49397;47.474;9.416;2023-06-04T03:52:46;10.93;;;8.93;;
11267;SDS011;49397;47.474;9.416;2023-06-04T03:55:12;9.57;;;8.23;;
11267;SDS011;49397;47.474;9.416;2023-06-04T03:57:38;13.13;;;7.83;;
11267;SDS011;49397;47.474;9.416;2023-06-04T04:00:05;12.80;;;8.57;;
11267;SDS011;49397;47.474;9.416;2023-06-04T04:02:31;12.67;;;7.33;;
11267;SDS011;49397;47.474;9.416;2023-06-04T04:04:56;9.33;;;8.07;;
11267;SDS011;49397;47.474;9.416;2023-06-04T04:07:22;13.20;;;8.27;;
11267;SDS011;49397;47.474;9.416;2023-06-04T04:09:49;10.83;;;8.33;;
11267;SDS011;49397;47.474;9.416;2023-06-04T04:12:16;10.03;;;8.50;;
11267;SDS011;49397;47.474;9.416;2023-06-04T04:14:42;10.93;;;8.23;;
11267;SDS011;49397;47.474;9.416;2023-06-04T04:17:07;10.07;;;7.90;;
11267;SDS011;49397;47.474;9.416;2023-06-04T04:19:33;10.20;;;8.40;;
11267;SDS011;49397;47.474;9.416;2023-06-04T04:21:58;12.53;;;8.53;;
11267;SDS011;49397;47.474;9.416;2023-06-04T04:24:25;13.17;;;9.07;;
11267;SDS011;49397;47.474;9.416;2023-06-04T04:26:52;12.00;;;8.33;;
11267;SDS011;49397;47.474;9.416;2023-06-04T04:29:21;10.50;;;8.10;;
11267;SDS011;49397;47.474;9.416;2023-06-04T04:31:51;11.57;;;8.83;;
11267;SDS011;49397;47.474;9.416;2023-06-04T04:34:17;10.43;;;8.60;;
11267;SDS011;49397;47.474;9.416;2023-06-04T04:36:45;11.27;;;8.10;;
11267;SDS011;49397;47.474;9.416;2023-06-04T04:39:17;10.20;;;8.53;;
11267;SDS011;49397;47.474;9.416;2023-06-04T04:41:53;10.87;;;8.13;;
11267;SDS011;49397;47.474;9.416;2023-06-04T04:44:19;13.37;;;9.27;;
11267;SDS011;49397;47.474;9.416;2023-06-04T04:46:45;10.73;;;8.77;;
11267;SDS011;49397;47.474;9.416;2023-06-04T04:49:10;11.10;;;8.83;;
11267;SDS011;49397;47.474;9.416;2023-06-04T04:51:36;10.17;;;8.60;;
11267;SDS011;49397;47.474;9.416;2023-06-04T04:54:01;13.53;;;8.80;;
11267;SDS011;49397;47.474;9.416;2023-06-04T04:56:27;11.70;;;9.53;;
11267;SDS011;49397;47.474;9.416;2023-06-04T04:58:54;9.47;;;8.37;;
11267;SDS011;49397;47.474;9.416;2023-06-04T05:01:20;10.80;;;8.50;;
11267;SDS011;49397;47.474;9.416;2023-06-04T05:03:46;9.63;;;8.23;;
11267;SDS011;49397;47.474;9.416;2023-06-04T05:06:11;12.97;;;8.43;;
11267;SDS011;49397;47.474;9.416;2023-06-04T05:08:37;11.83;;;8.30;;
11267;SDS011;49397;47.474;9.416;2023-06-04T05:11:02;10.93;;;9.43;;
11267;SDS011;49397;47.474;9.416;2023-06-04T05:13:28;11.80;;;8.43;;
11267;SDS011;49397;47.474;9.416;2023-06-04T05:15:53;10.20;;;8.17;;
11267;SDS011;49397;47.474;9.416;2023-06-04T05:18:19;9.40;;;8.30;;
11267;SDS011;49397;47.474;9.416;2023-06-04T05:20:54;11.70;;;8.63;;
11267;SDS011;49397;47.474;9.416;2023-06-04T05:23:20;14.37;;;9.33;;
11267;SDS011;49397;47.474;9.416;2023-06-04T05:25:46;9.70;;;7.97;;
11267;SDS011;49397;47.474;9.416;2023-06-04T05:28:14;12.20;;;8.50;;
11267;SDS011;49397;47.474;9.416;2023-06-04T05:30:40;16.60;;;9.47;;
11267;SDS011;49397;47.474;9.416;2023-06-04T05:33:07;10.33;;;9.10;;
11267;SDS011;49397;47.474;9.416;2023-06-04T05:35:37;10.30;;;8.67;;
11267;SDS011;49397;47.474;9.416;2023-06-04T05:38:06;12.70;;;8.47;;
11267;SDS011;49397;47.474;9.416;2023-06-04T05:40:31;10.70;;;8.93;;
11267;SDS011;49397;47.474;9.416;2023-06-04T05:42:57;8.90;;;8.00;;
11267;SDS011;49397;47.474;9.416;2023-06-04T05:45:22;9.60;;;8.60;;
11267;SDS011;49397;47.474;9.416;2023-06-04T05:47:48;12.43;;;9.17;;
11267;SDS011;49397;47.474;9.416;2023-06-04T05:50:13;12.30;;;9.10;;
11267;SDS011;49397;47.474;9.416;2023-06-04T05:52:39;11.83;;;9.00;;
11267;SDS011;49397;47.474;9.416;2023-06-04T05:55:05;10.17;;;8.20;;
11267;SDS011;49397;47.474;9.416;2023-06-04T05:57:32;11.40;;;8.93;;
11267;SDS011;49397;47.474;9.416;2023-06-04T05:59:58;13.37;;;9.10;;
11267;SDS011;49397;47.474;9.416;2023-06-04T06:02:23;12.33;;;8.33;;
11267;SDS011;49397;47.474;9.416;2023-06-04T06:04:49;12.70;;;8.60;;
11267;SDS011;49397;47.474;9.416;2023-06-04T06:07:14;10.07;;;9.07;;
11267;SDS011;49397;47.474;9.416;2023-06-04T06:09:40;11.83;;;9.23;;
11267;SDS011;49397;47.474;9.416;2023-06-04T06:12:05;10.77;;;9.50;;
11267;SDS011;49397;47.474;9.416;2023-06-04T06:14:31;10.67;;;9.50;;
11267;SDS011;49397;47.474;9.416;2023-06-04T06:16:56;12.43;;;9.00;;
11267;SDS011;49397;47.474;9.416;2023-06-04T06:19:22;10.23;;;7.97;;
11267;SDS011;49397;47.474;9.416;2023-06-04T06:21:47;10.90;;;8.90;;
11267;SDS011;49397;47.474;9.416;2023-06-04T06:24:13;11.60;;;9.03;;
11267;SDS011;49397;47.474;9.416;2023-06-04T06:26:38;12.53;;;9.40;;
11267;SDS011;49397;47.474;9.416;2023-06-04T06:29:04;9.97;;;8.97;;
11267;SDS011;49397;47.474;9.416;2023-06-04T06:31:29;11.43;;;8.60;;
11267;SDS011;49397;47.474;9.416;2023-06-04T06:33:55;10.17;;;9.03;;
11267;SDS011;49397;47.474;9.416;2023-06-04T06:36:20;10.77;;;8.40;;
11267;SDS011;49397;47.474;9.416;2023-06-04T06:38:46;12.03;;;8.80;;
11267;SDS011;49397;47.474;9.416;2023-06-04T06:41:11;12.30;;;8.97;;
11267;SDS011;49397;47.474;9.416;2023-06-04T06:43:37;12.60;;;8.80;;
11267;SDS011;49397;47.474;9.416;2023-06-04T06:46:03;13.40;;;8.53;;
11267;SDS011;49397;47.474;9.416;2023-06-04T06:48:28;13.17;;;9.57;;
11267;SDS011;49397;47.474;9.416;2023-06-04T06:50:54;9.33;;;8.10;;
11267;SDS011;49397;47.474;9.416;2023-06-04T06:53:20;11.43;;;8.10;;
11267;SDS011;49397;47.474;9.416;2023-06-04T06:55:46;10.70;;;8.43;;
11267;SDS011;49397;47.474;9.416;2023-06-04T06:58:11;9.97;;;8.73;;
11267;SDS011;49397;47.474;9.416;2023-06-04T07:00:36;10.90;;;8.77;;
11267;SDS011;49397;47.474;9.416;2023-06-04T07:03:02;10.37;;;8.50;;
11267;SDS011;49397;47.474;9.416;2023-06-04T07:05:29;11.40;;;8.23;;
11267;SDS011;49397;47.474;9.416;2023-06-04T07:07:55;10.53;;;8.93;;
11267;SDS011;49397;47.474;9.416;2023-06-04T07:10:22;12.43;;;7.50;;
11267;SDS011;49397;47.474;9.416;2023-06-04T07:12:48;11.50;;;8.60;;
11267;SDS011;49397;47.474;9.416;2023-06-04T07:15:13;11.47;;;8.37;;
11267;SDS011;49397;47.474;9.416;2023-06-04T07:17:39;9.70;;;8.70;;
11267;SDS011;49397;47.474;9.416;2023-06-04T07:20:04;11.30;;;8.67;;
11267;SDS011;49397;47.474;9.416;2023-06-04T07:22:32;10.77;;;8.53;;
11267;SDS011;49397;47.474;9.416;2023-06-04T07:24:57;11.33;;;8.87;;
11267;SDS011;49397;47.474;9.416;2023-06-04T07:27:23;11.33;;;10.17;;
11267;SDS011;49397;47.474;9.416;2023-06-04T07:29:49;10.90;;;8.83;;
11267;SDS011;49397;47.474;9.416;2023-06-04T07:32:14;9.87;;;8.87;;
11267;SDS011;49397;47.474;9.416;2023-06-04T07:34:40;9.63;;;8.63;;
11267;SDS011;49397;47.474;9.416;2023-06-04T07:37:05;13.03;;;8.83;;
11267;SDS011;49397;47.474;9.416;2023-06-04T07:39:31;13.73;;;9.80;;
11267;SDS011;49397;47.474;9.416;2023-06-04T07:41:56;13.57;;;8.97;;
11267;SDS011;49397;47.474;9.416;2023-06-04T07:44:22;12.50;;;8.83;;
11267;SDS011;49397;47.474;9.416;2023-06-04T07:46:47;9.93;;;7.80;;
11267;SDS011;49397;47.474;9.416;2023-06-04T07:49:13;10.93;;;8.67;;
11267;SDS011;49397;47.474;9.416;2023-06-04T07:51:39;9.97;;;8.97;;
11267;SDS011;49397;47.474;9.416;2023-06-04T07:54:05;11.47;;;9.33;;
11267;SDS011;49397;47.474;9.416;2023-06-04T07:56:30;15.77;;;8.20;;
11267;SDS011;49397;47.474;9.416;2023-06-04T07:58:56;12.03;;;9.23;;
11267;SDS011;49397;47.474;9.416;2023-06-04T08:01:21;10.27;;;9.07;;
11267;SDS011;49397;47.474;9.416;2023-06-04T08:03:49;10.20;;;8.57;;
11267;SDS011;49397;47.474;9.416;2023-06-04T08:06:15;10.80;;;9.47;;
11267;SDS011;49397;47.474;9.416;2023-06-04T08:08:43;15.73;;;9.57;;
11267;SDS011;49397;47.474;9.416;2023-06-04T08:11:14;9.90;;;8.90;;
11267;SDS011;49397;47.474;9.416;2023-06-04T08:13:40;9.53;;;8.53;;
11267;SDS011;49397;47.474;9.416;2023-06-04T08:16:06;9.63;;;8.60;;
11267;SDS011;49397;47.474;9.416;2023-06-04T08:18:32;14.13;;;8.70;;
11267;SDS011;49397;47.474;9.416;2023-06-04T08:20:58;14.37;;;8.43;;
11267;SDS011;49397;47.474;9.416;2023-06-04T08:23:23;10.07;;;8.90;;
11267;SDS011;49397;47.474;9.416;2023-06-04T08:25:49;13.10;;;9.63;;
11267;SDS011;49397;47.474;9.416;2023-06-04T08:28:15;13.60;;;9.03;;
11267;SDS011;49397;47.474;9.416;2023-06-04T08:30:44;12.30;;;8.20;;
11267;SDS011;49397;47.474;9.416;2023-06-04T08:33:10;11.17;;;8.87;;
11267;SDS011;49397;47.474;9.416;2023-06-04T08:35:36;10.83;;;9.03;;
11267;SDS011;49397;47.474;9.416;2023-06-04T08:38:01;10.23;;;8.77;;
11267;SDS011;49397;47.474;9.416;2023-06-04T08:40:27;12.13;;;8.57;;
11267;SDS011;49397;47.474;9.416;2023-06-04T08:42:53;13.30;;;8.43;;
11267;SDS011;49397;47.474;9.416;2023-06-04T08:45:23;9.73;;;8.07;;
11267;SDS011;49397;47.474;9.416;2023-06-04T08:47:49;11.93;;;8.87;;
11267;SDS011;49397;47.474;9.416;2023-06-04T08:50:20;9.30;;;8.30;;
11267;SDS011;49397;47.474;9.416;2023-06-04T08:52:49;11.00;;;8.87;;
11267;SDS011;49397;47.474;9.416;2023-06-04T08:55:18;10.23;;;8.40;;
11267;SDS011;49397;47.474;9.416;2023-06-04T08:57:44;12.63;;;9.17;;
11267;SDS011;49397;47.474;9.416;2023-06-04T09:00:10;9.67;;;8.27;;
11267;SDS011;49397;47.474;9.416;2023-06-04T09:02:37;11.77;;;9.47;;
11267;SDS011;49397;47.474;9.416;2023-06-04T09:05:04;13.10;;;9.17;;
11267;SDS011;49397;47.474;9.416;2023-06-04T09:07:32;10.30;;;8.67;;
11267;SDS011;49397;47.474;9.416;2023-06-04T09:10:02;10.53;;;8.90;;
11267;SDS011;49397;47.474;9.416;2023-06-04T09:12:28;9.40;;;8.20;;
11267;SDS011;49397;47.474;9.416;2023-06-04T09:14:54;10.10;;;8.10;;
11267;SDS011;49397;47.474;9.416;2023-06-04T09:17:23;9.17;;;7.13;;
11267;SDS011;49397;47.474;9.416;2023-06-04T09:19:50;9.27;;;6.70;;
11267;SDS011;49397;47.474;9.416;2023-06-04T09:22:16;10.47;;;7.23;;
11267;SDS011;49397;47.474;9.416;2023-06-04T09:24:42;7.47;;;6.40;;
11267;SDS011;49397;47.474;9.416;2023-06-04T09:27:18;7.70;;;6.90;;
11267;SDS011;49397;47.474;9.416;2023-06-04T09:29:55;10.73;;;7.30;;
11267;SDS011;49397;47.474;9.416;2023-06-04T09:32:22;7.87;;;6.70;;
11267;SDS011;49397;47.474;9.416;2023-06-04T09:34:52;8.20;;;7.00;;
11267;SDS011;49397;47.474;9.416;2023-06-04T09:37:18;7.57;;;6.87;;
11267;SDS011;49397;47.474;9.416;2023-06-04T09:39:52;9.07;;;6.93;;
11267;SDS011;49397;47.474;9.416;2023-06-04T09:42:18;10.13;;;6.80;;
11267;SDS011;49397;47.474;9.416;2023-06-04T09:44:44;7.97;;;6.93;;
11267;SDS011;49397;47.474;9.416;2023-06-04T09:47:14;8.30;;;6.43;;
11267;SDS011;49397;47.474;9.416;2023-06-04T09:49:44;8.47;;;6.40;;
11267;SDS011;49397;47.474;9.416;2023-06-04T09:52:11;9.17;;;7.10;;
11267;SDS011;49397;47.474;9.416;2023-06-04T09:54:38;8.73;;;6.60;;
11267;SDS011;49397;47.474;9.416;2023-06-04T09:57:13;8.27;;;6.17;;
11267;SDS011;49397;47.474;9.416;2023-06-04T09:59:43;8.97;;;6.73;;
11267;SDS011;49397;47.474;9.416;2023-06-04T10:02:16;8.47;;;6.27;;
11267;SDS011;49397;47.474;9.416;2023-06-04T10:04:44;8.83;;;6.37;;
11267;SDS011;49397;47.474;9.416;2023-06-04T10:07:24;6.93;;;6.23;;
11267;SDS011;49397;47.474;9.416;2023-06-04T10:09:51;7.37;;;6.67;;
11267;SDS011;49397;47.474;9.416;2023-06-04T10:12:18;7.30;;;6.17;;
11267;SDS011;49397;47.474;9.416;2023-06-04T10:15:05;7.57;;;6.73;;
11267;SDS011;49397;47.474;9.416;2023-06-04T10:17:35;8.97;;;6.73;;
11267;SDS011;49397;47.474;9.416;2023-06-04T10:20:02;7.47;;;6.10;;
11267;SDS011;49397;47.474;9.416;2023-06-04T10:22:31;7.10;;;5.63;;
11267;SDS011;49397;47.474;9.416;2023-06-04T10:24:58;9.00;;;6.70;;
11267;SDS011;49397;47.474;9.416;2023-06-04T10:27:24;7.23;;;6.53;;
11267;SDS011;49397;47.474;9.416;2023-06-04T10:29:50;9.40;;;6.47;;
11267;SDS011;49397;47.474;9.416;2023-06-04T10:32:16;10.13;;;5.80;;
11267;SDS011;49397;47.474;9.416;2023-06-04T10:34:42;9.80;;;6.13;;
11267;SDS011;49397;47.474;9.416;2023-06-04T10:37:18;6.83;;;5.83;;
11267;SDS011;49397;47.474;9.416;2023-06-04T10:39:51;5.83;;;5.27;;
11267;SDS011;49397;47.474;9.416;2023-06-04T10:42:18;7.97;;;5.43;;
11267;SDS011;49397;47.474;9.416;2023-06-04T10:44:45;6.60;;;5.97;;
11267;SDS011;49397;47.474;9.416;2023-06-04T10:47:21;6.57;;;5.43;;
11267;SDS011;49397;47.474;9.416;2023-06-04T10:49:49;7.27;;;5.33;;
11267;SDS011;49397;47.474;9.416;2023-06-04T10:52:16;7.10;;;6.10;;
11267;SDS011;49397;47.474;9.416;2023-06-04T10:54:42;7.67;;;6.73;;
11267;SDS011;49397;47.474;9.416;2023-06-04T10:59:37;6.13;;;5.10;;
11267;SDS011;49397;47.474;9.416;2023-06-04T11:02:08;8.13;;;5.87;;
11267;SDS011;49397;47.474;9.416;2023-06-04T11:04:34;10.03;;;6.13;;
11267;SDS011;49397;47.474;9.416;2023-06-04T11:07:02;24.87;;;12.83;;
11267;SDS011;49397;47.474;9.416;2023-06-04T11:09:35;12.90;;;9.83;;
11267;SDS011;49397;47.474;9.416;2023-06-04T11:12:21;15.27;;;8.97;;
11267;SDS011;49397;47.474;9.416;2023-06-04T11:14:58;12.13;;;7.47;;
11267;SDS011;49397;47.474;9.416;2023-06-04T11:17:24;9.93;;;6.40;;
11267;SDS011;49397;47.474;9.416;2023-06-04T11:19:50;8.10;;;6.57;;
11267;SDS011;49397;47.474;9.416;2023-06-04T11:22:20;7.43;;;5.87;;
11267;SDS011;49397;47.474;9.416;2023-06-04T11:24:46;6.10;;;5.50;;
11267;SDS011;49397;47.474;9.416;2023-06-04T11:27:11;6.40;;;5.77;;
11267;SDS011;49397;47.474;9.416;2023-06-04T11:29:37;7.47;;;5.27;;
11267;SDS011;49397;47.474;9.416;2023-06-04T11:32:03;5.57;;;5.07;;
11267;SDS011;49397;47.474;9.416;2023-06-04T11:34:29;5.43;;;4.93;;
11267;SDS011;49397;47.474;9.416;2023-06-04T11:37:07;6.60;;;4.90;;
11267;SDS011;49397;47.474;9.416;2023-06-04T11:39:36;5.87;;;5.37;;
11267;SDS011;49397;47.474;9.416;2023-06-04T11:42:04;6.80;;;5.90;;
11267;SDS011;49397;47.474;9.416;2023-06-04T11:44:31;6.07;;;5.47;;
11267;SDS011;49397;47.474;9.416;2023-06-04T11:46:56;13.10;;;10.20;;
11267;SDS011;49397;47.474;9.416;2023-06-04T11:49:22;7.43;;;5.80;;
11267;SDS011;49397;47.474;9.416;2023-06-04T11:51:48;6.37;;;5.77;;
11267;SDS011;49397;47.474;9.416;2023-06-04T11:54:16;6.67;;;5.97;;
11267;SDS011;49397;47.474;9.416;2023-06-04T11:56:43;8.57;;;5.40;;
11267;SDS011;49397;47.474;9.416;2023-06-04T11:59:10;9.50;;;6.67;;
11267;SDS011;49397;47.474;9.416;2023-06-04T12:01:39;7.30;;;5.63;;
11267;SDS011;49397;47.474;9.416;2023-06-04T12:06:49;6.20;;;5.60;;
11267;SDS011;49397;47.474;9.416;2023-06-04T12:09:20;7.27;;;5.47;;
11267;SDS011;49397;47.474;9.416;2023-06-04T12:11:47;5.97;;;5.07;;
11267;SDS011;49397;47.474;9.416;2023-06-04T12:14:15;5.93;;;5.33;;
11267;SDS011;49397;47.474;9.416;2023-06-04T12:16:54;6.40;;;5.70;;
11267;SDS011;49397;47.474;9.416;2023-06-04T12:19:49;5.90;;;5.40;;
11267;SDS011;49397;47.474;9.416;2023-06-04T12:22:16;7.10;;;5.70;;
11267;SDS011;49397;47.474;9.416;2023-06-04T12:24:49;7.20;;;6.50;;
11267;SDS011;49397;47.474;9.416;2023-06-04T12:27:19;6.17;;;5.03;;
11267;SDS011;49397;47.474;9.416;2023-06-04T12:29:55;9.17;;;6.10;;
11267;SDS011;49397;47.474;9.416;2023-06-04T12:32:22;6.53;;;5.00;;
11267;SDS011;49397;47.474;9.416;2023-06-04T12:34:47;5.68;;;5.18;;
11267;SDS011;49397;47.474;9.416;2023-06-04T12:37:13;5.73;;;5.23;;
11267;SDS011;49397;47.474;9.416;2023-06-04T12:39:39;6.60;;;5.40;;
11267;SDS011;49397;47.474;9.416;2023-06-04T12:42:05;6.07;;;5.35;;
11267;SDS011;49397;47.474;9.416;2023-06-04T12:44:31;6.57;;;5.70;;
11267;SDS011;49397;47.474;9.416;2023-06-04T12:46:57;6.90;;;5.85;;
11267;SDS011;49397;47.474;9.416;2023-06-04T12:49:23;6.32;;;5.70;;
11267;SDS011;49397;47.474;9.416;2023-06-04T12:51:48;6.15;;;5.55;;
11267;SDS011;49397;47.474;9.416;2023-06-04T12:54:14;5.78;;;5.10;;
11267;SDS011;49397;47.474;9.416;2023-06-04T12:56:40;6.93;;;5.28;;
11267;SDS011;49397;47.474;9.416;2023-06-04T12:59:06;6.03;;;5.43;;
11267;SDS011;49397;47.474;9.416;2023-06-04T13:01:32;5.53;;;5.03;;
11267;SDS011;49397;47.474;9.416;2023-06-04T13:03:57;7.88;;;5.10;;
11267;SDS011;49397;47.474;9.416;2023-06-04T13:06:23;6.78;;;5.65;;
11267;SDS011;49397;47.474;9.416;2023-06-04T13:08:48;6.57;;;5.30;;
11267;SDS011;49397;47.474;9.416;2023-06-04T13:11:14;7.13;;;5.63;;
11267;SDS011;49397;47.474;9.416;2023-06-04T13:13:39;5.47;;;4.97;;
11267;SDS011;49397;47.474;9.416;2023-06-04T13:16:05;6.60;;;5.93;;
11267;SDS011;49397;47.474;9.416;2023-06-04T13:18:30;6.72;;;5.47;;
11267;SDS011;49397;47.474;9.416;2023-06-04T13:20:56;6.53;;;4.97;;
11267;SDS011;49397;47.474;9.416;2023-06-04T13:23:21;6.13;;;5.43;;
11267;SDS011;49397;47.474;9.416;2023-06-04T13:25:47;10.00;;;6.43;;
11267;SDS011;49397;47.474;9.416;2023-06-04T13:28:12;7.88;;;6.05;;
11267;SDS011;49397;47.474;9.416;2023-06-04T13:30:38;6.63;;;5.68;;
11267;SDS011;49397;47.474;9.416;2023-06-04T13:33:05;6.40;;;5.70;;
11267;SDS011;49397;47.474;9.416;2023-06-04T13:35:30;8.02;;;5.20;;
11267;SDS011;49397;47.474;9.416;2023-06-04T13:37:56;6.97;;;5.10;;
11267;SDS011;49397;47.474;9.416;2023-06-04T13:40:22;6.13;;;5.30;;
11267;SDS011;49397;47.474;9.416;2023-06-04T13:42:48;6.87;;;5.50;;
11267;SDS011;49397;47.474;9.416;2023-06-04T13:45:13;11.00;;;5.45;;
11267;SDS011;49397;47.474;9.416;2023-06-04T13:47:39;6.13;;;5.53;;
11267;SDS011;49397;47.474;9.416;2023-06-04T13:50:05;6.03;;;5.30;;
11267;SDS011;49397;47.474;9.416;2023-06-04T13:52:31;6.45;;;5.63;;
11267;SDS011;49397;47.474;9.416;2023-06-04T13:54:56;5.63;;;5.13;;
11267;SDS011;49397;47.474;9.416;2023-06-04T13:57:25;7.60;;;5.93;;
11267;SDS011;49397;47.474;9.416;2023-06-04T13:59:51;5.80;;;5.13;;
11267;SDS011;49397;47.474;9.416;2023-06-04T14:02:16;5.40;;;4.90;;
11267;SDS011;49397;47.474;9.416;2023-06-04T14:04:42;8.57;;;5.57;;
11267;SDS011;49397;47.474;9.416;2023-06-04T14:07:08;5.97;;;5.38;;
11267;SDS011;49397;47.474;9.416;2023-06-04T14:09:33;6.40;;;5.55;;
11267;SDS011;49397;47.474;9.416;2023-06-04T14:11:59;6.67;;;5.30;;
11267;SDS011;49397;47.474;9.416;2023-06-04T14:14:24;6.10;;;5.13;;
11267;SDS011;49397;47.474;9.416;2023-06-04T14:16:50;6.47;;;5.30;;
11267;SDS011;49397;47.474;9.416;2023-06-04T14:19:15;10.37;;;5.77;;
11267;SDS011;49397;47.474;9.416;2023-06-04T14:21:41;6.32;;;5.20;;
11267;SDS011;49397;47.474;9.416;2023-06-04T14:24:08;7.63;;;5.35;;
11267;SDS011;49397;47.474;9.416;2023-06-04T14:26:34;7.73;;;5.30;;
11267;SDS011;49397;47.474;9.416;2023-06-04T14:29:00;6.50;;;5.63;;
11267;SDS011;49397;47.474;9.416;2023-06-04T14:31:26;6.67;;;5.50;;
11267;SDS011;49397;47.474;9.416;2023-06-04T14:33:51;6.23;;;5.63;;
11267;SDS011;49397;47.474;9.416;2023-06-04T14:36:17;7.67;;;5.23;;
11267;SDS011;49397;47.474;9.416;2023-06-04T14:38:43;5.83;;;5.23;;
11267;SDS011;49397;47.474;9.416;2023-06-04T14:41:09;6.53;;;5.87;;
11267;SDS011;49397;47.474;9.416;2023-06-04T14:43:35;6.20;;;5.67;;
11267;SDS011;49397;47.474;9.416;2023-06-04T14:46:00;7.03;;;5.90;;